Chopin — ZDFE4 — position and weather

sailwx.info

Track history (hours):
 
Tides and Currents Weather Stations Pressure Air Temp Water Temp Dewpoint Dewpoint Depression Visibility Wind Speed Wind Dir Waves Ship Positions

Chopin

Last reported at 2014-Oct-20 09:31 UTC. Time now 2014-Oct-22 00:04 UTC.
Position N 52°36' W 005°51'.

Length 104 m; draft 4.2 m.

Type: Cargo ship. MMSI: 236099000.

Date/timePositionNaut miles runAvg speedWind from/ knotsBaromVisibWave heightAir tempDewpointWater temp
2014-Oct-20 09:31N 52°36' W 005°51'9 9.5
2014-Oct-20 08:32N 52°26' W 005°50'  
2014-Oct-16 09:31N 43°33' W 001°46'9 9.7
2014-Oct-16 08:34N 43°33' W 001°33'2 0.1
2014-Oct-15 06:18N 43°32' W 001°30'0 0.0
2014-Oct-15 04:23N 43°32' W 001°30'3 3.3
2014-Oct-15 03:33N 43°33' W 001°33'17 8.7
2014-Oct-15 01:33N 43°48' W 001°46'  
2014-Oct-12 07:28N 50°35' E 000°15'1011.2
2014-Oct-12 06:33N 50°38' E 000°30'1110.9
2014-Oct-12 05:33N 50°44' E 000°45'10 9.9
2014-Oct-12 04:33N 50°49' E 000°58'17 8.1
2014-Oct-12 02:27N 51°00' E 001°19'6 6.4
2014-Oct-12 01:33N 51°04' E 001°26'7 7.1
2014-Oct-12 00:33N 51°08' E 001°35'9 8.8
2014-Oct-11 23:33N 51°14' E 001°45'1111.3
2014-Oct-11 22:33N 51°23' E 001°56'1111.4
2014-Oct-11 21:33N 51°32' E 002°08'1110.6
2014-Oct-11 20:33N 51°40' E 002°19'79 8.6
2014-Oct-11 11:22N 52°43' E 003°38'910.4
2014-Oct-11 10:33N 52°49' E 003°47'1010.2
2014-Oct-11 09:33N 52°56' E 003°59'10 9.6
2014-Oct-11 08:32N 53°03' E 004°10'11 8.7
2014-Oct-11 07:14N 53°11' E 004°24'6 8.0
2014-Oct-11 06:33N 53°16' E 004°28'8 7.7
2014-Oct-11 05:33N 53°23' E 004°33'7 7.4
2014-Oct-11 04:33N 53°29' E 004°40'10 9.6
2014-Oct-11 03:33N 53°32' E 004°55'1010.4
2014-Oct-11 02:33N 53°36' E 005°12'1010.4
2014-Oct-11 01:33N 53°39' E 005°29'10 9.9
2014-Oct-11 00:33N 53°42' E 005°44'10 9.4
2014-Oct-10 23:32N 53°45' E 005°60'8 8.5
2014-Oct-10 22:33N 53°48' E 006°13'43 8.5
2014-Oct-10 17:32N 53°59' E 007°23'10 9.9
2014-Oct-10 16:33N 54°01' E 007°39'10 9.6
2014-Oct-10 15:33N 54°01' E 007°55'10 9.5
2014-Oct-10 14:33N 54°01' E 008°11'8 8.0
2014-Oct-10 13:33N 53°59' E 008°25'9 8.6
2014-Oct-10 12:33N 53°57' E 008°39'8 7.8
2014-Oct-10 11:33N 53°51' E 008°47'7 7.1
2014-Oct-10 10:33N 53°51' E 008°59'6 6.2
2014-Oct-10 09:33N 53°54' E 009°09'  
Track history (hours):
 
Tides and Currents Weather Stations Pressure Air Temp Water Temp Dewpoint Dewpoint Depression Visibility Wind Speed Wind Dir Waves Ship Positions

Chopin

Last reported at 2014-Oct-20 09:31 UTC. Time now 2014-Oct-22 00:04 UTC.
Position N 52°36' W 005°51'.

Length 104 m; draft 4.2 m.

Type: Cargo ship. MMSI: 236099000.

Date/timePositionNaut miles runAvg speedWind from/ knotsBaromVisibWave heightAir tempDewpointWater temp
2014-Oct-20 09:31N 52°36' W 005°51'9 9.5
2014-Oct-20 08:32N 52°26' W 005°50'  
2014-Oct-16 09:31N 43°33' W 001°46'9 9.7
2014-Oct-16 08:34N 43°33' W 001°33'2 0.1
2014-Oct-15 06:18N 43°32' W 001°30'0 0.0
2014-Oct-15 04:23N 43°32' W 001°30'3 3.3
2014-Oct-15 03:33N 43°33' W 001°33'17 8.7
2014-Oct-15 01:33N 43°48' W 001°46'  
2014-Oct-12 07:28N 50°35' E 000°15'1011.2
2014-Oct-12 06:33N 50°38' E 000°30'1110.9
2014-Oct-12 05:33N 50°44' E 000°45'10 9.9
2014-Oct-12 04:33N 50°49' E 000°58'17 8.1
2014-Oct-12 02:27N 51°00' E 001°19'6 6.4
2014-Oct-12 01:33N 51°04' E 001°26'7 7.1
2014-Oct-12 00:33N 51°08' E 001°35'9 8.8
2014-Oct-11 23:33N 51°14' E 001°45'1111.3
2014-Oct-11 22:33N 51°23' E 001°56'1111.4
2014-Oct-11 21:33N 51°32' E 002°08'1110.6
2014-Oct-11 20:33N 51°40' E 002°19'79 8.6
2014-Oct-11 11:22N 52°43' E 003°38'910.4
2014-Oct-11 10:33N 52°49' E 003°47'1010.2
2014-Oct-11 09:33N 52°56' E 003°59'10 9.6
2014-Oct-11 08:32N 53°03' E 004°10'11 8.7
2014-Oct-11 07:14N 53°11' E 004°24'6 8.0
2014-Oct-11 06:33N 53°16' E 004°28'8 7.7
2014-Oct-11 05:33N 53°23' E 004°33'7 7.4
2014-Oct-11 04:33N 53°29' E 004°40'10 9.6
2014-Oct-11 03:33N 53°32' E 004°55'1010.4
2014-Oct-11 02:33N 53°36' E 005°12'1010.4
2014-Oct-11 01:33N 53°39' E 005°29'10 9.9
2014-Oct-11 00:33N 53°42' E 005°44'10 9.4
2014-Oct-10 23:32N 53°45' E 005°60'8 8.5
2014-Oct-10 22:33N 53°48' E 006°13'43 8.5
2014-Oct-10 17:32N 53°59' E 007°23'10 9.9
2014-Oct-10 16:33N 54°01' E 007°39'10 9.6
2014-Oct-10 15:33N 54°01' E 007°55'10 9.5
2014-Oct-10 14:33N 54°01' E 008°11'8 8.0
2014-Oct-10 13:33N 53°59' E 008°25'9 8.6
2014-Oct-10 12:33N 53°57' E 008°39'8 7.8
2014-Oct-10 11:33N 53°51' E 008°47'7 7.1
2014-Oct-10 10:33N 53°51' E 008°59'6 6.2
2014-Oct-10 09:33N 53°54' E 009°09'  

Dump ship's entire track history